Cotati, CA (94926)

3:32 PM PDT on August 30, 2014 (GMT -0700)
KCAROHNE6 | Change Station
CLOSE
Current Station
Personal Weather Station
Location: Rohnert Park, CA
Elevation: 108 ft
Nearby Weather Stations

Elev 108 ft 38.34 °N, 122.70 °W | Updated 12 seconds ago

Clear
Clear
87.5 °F
Feels Like 88 °F
N
2.0
Wind Variable Wind from SW
Gusts 11.0 mph

Today
High -- | Low -- °F
--% Chance of Precip.
Yesterday
High -- | Low -- °F
Precip. -- in
6:38 AM 7:43 PM
Waxing Crescent, 25% visible
Pressure 29.80 in
Visibility 10.0 miles
Clouds Scattered Clouds 20000 ft
Heat Index 88 °F
Dew Point 62 °F
Humidity 42%
Rainfall 0.00 in
Snow Depth Not available.
UV 6 out of 12
Pollen 7.70 out of 12
Air Quality Not available.
Flu Activity Not available.
METAR KSTS 302153Z COR 14012KT 10SM SCT200 33/13 A2982 RMK AO2 SLP091 T03330128

More Conditions Fewer Conditions

Pressure 29.80 in
Visibility 10.0 miles
Clouds Scattered Clouds 20000 ft
Heat Index 88 °F
Dew Point 62 °F
Humidity 42%
Rainfall 0.00 in
Snow Depth Not available.
UV 6 out of 12
Pollen 7.70 out of 12
Air Quality Not available.
Flu Activity Not available.
METAR KSTS 302153Z COR 14012KT 10SM SCT200 33/13 A2982 RMK AO2 SLP091 T03330128

More Conditions Fewer Conditions

10-Day Weather Forecast

Almanac

Astronomy

Aug. 30, 2014 Rise Set
Actual Time 6:38 AM PDT 7:43 PM PDT
Civil Twilight 6:11 AM PDT 8:10 PM PDT
Nautical Twilight 5:39 AM PDT 8:42 PM PDT
Astronomical Twilight 5:05 AM PDT 9:16 PM PDT
Moon 11:27 AM PDT 10:25 PM PDT
Length of Visible Light 13h 59m
Length of Day
13h 04m
Tomorrow will be 2m 22s shorter.
Waxing Crescent, 25% of the Moon is Illuminated
Today
Waxing Crescent
Sep 2
First Quarter
Sep 8
Full
Sep 15
Last Quarter
Sep 24
New

Today's Extremes

State Highs State Lows

Community

WunderPhotos

Upload Photos

1,748,657 photos uploaded!

WunderBlogs® & News

Nearby

Air Quality

  Air Quality AQ Index Pollutant
Saturday Good
PM2.5
Sunday Good
PM2.5
Monday Good
PM2.5
Tuesday Good
PM2.5
Wednesday Good
PM2.5

Snow Depth

Station Depth Elevation
CSS Lab 0 in 6900 ft
Rubicon #2 0 in 7500 ft
Hagan's Meadow 0 in 8000 ft
Leavitt Meadows 0 in 7200 ft
Summit Meadow 0 in 9122 ft

Earthquake Activity

City Distance Mag. Time & Date
Ridgemark, California 136 miles 3.4 4:32 PM PDT
2014-08-29
The Geysers, California 34 miles 2.7 2:53 PM PDT
2014-08-29
Ridgemark, California 136 miles 3.0 2:44 PM PDT
2014-08-29
Minimum magnitude displayed is 2.5.

Coastal Water Temperatures

Place Temperature
Point Reyes, CA 63.0 °F
Arena Cove, CA 55.9 °F
San Francisco, CA 66.0 °F
Richmond, CA 68.0 °F

Nearby Weather Stations